Aérodrome :
LOGIN :

S'inscrire | Disclaimer

   EN    FR    IT 

 










Légende :    VFR   VFR Marginal   IFR   IFR Intensif   IFR Très Intensif
Visi : 
Plafond : 
>= 8 km
>= 3000ft
5 à 8 km
1000 à 3000 ft
1500m à 5 km
500 à 1000 ft
800 à 1500m
200 à 500 ft
< 800m
< 200 ft
Symboles :   Orages  Brouillard  Fortes neiges  Fortes précipitations  Vent > 20 kt
SIGMETs :   Divers  Orages  Givrage  Turbulence  Onde Orograph.  Cendres Volcan.






- Altitude de l'aérodrome : 3368 ft


LSGC - Les Eplatures

DERNIER METAR :
  • 121120Z 21009KT 190V250 9999 BKN020 02/M02 Q1006

METARs EXPIRÉS :
  • 121050Z 24009KT 9999 SCT019 01/M02 Q1007
  • 121020Z 24009KT 200V260 CAVOK 01/M02 Q1007
  • 120950Z AUTO 24011KT 190V270 9999 NCD 02/M02 Q1007
  • 120920Z AUTO 21007KT 180V250 CAVOK 01/M02 Q1007
  • 120850Z AUTO 21007KT CAVOK 01/M03 Q1007

TAF TAF LSGC
Valide du 12 à 09h jusqu'au 12 à 18h UTC


120825Z 1209/1218 24008KT 9999 FEW020



MET'MAP, la Météo Aéronautique d'un coup d'oeil ! - Copyright ORBIFLY Décembre 2007 - Disclaimer

ORBIFLY MET'MAP TEAM :

Programmation & Développement : Alexandra Zaïnal
Conception & Développement : Baudouin d'Aumeries
Co-Programmation & Développement : Marc-Olivier Méhu
Soutien technique & logistique : Manuel Goepfert

Contact : metmap@orbifly.com




SOURCES & CREDITS :

   NOAA